Time;durP1;ratioP1;P1;durP2;ratioP2;P2;SDS_P1;SDS_P2;PMS_P1;PMS_P2;Temp;Humidity;BMP_temperature;BMP_pressure;BME280_temperature;BME280_humidity;BME280_pressure;Samples;Min_cycle;Max_cycle;Signal;HPM_P1;HPM_P2
2023/05/17 00:00:40;;;;;;;12.32;4.85;;;;;;;16.93;66.33;96966.66;10279307;28;20018;-53
2023/05/17 00:05:39;;;;;;;12.15;4.60;;;;;;;16.95;67.44;96977.09;10277133;28;20042;-53
2023/05/17 00:10:38;;;;;;;8.02;3.88;;;;;;;16.88;67.77;96971.25;10278783;28;20041;-53
2023/05/17 00:15:37;;;;;;;12.27;3.47;;;;;;;16.80;66.81;96974.13;10278676;28;20488;-53
2023/05/17 00:20:36;;;;;;;9.35;3.65;;;;;;;16.71;66.78;96932.56;10278966;28;20136;-53
2023/05/17 00:25:35;;;;;;;11.05;4.03;;;;;;;16.59;66.69;96912.09;10274601;28;20029;-54
2023/05/17 00:30:34;;;;;;;12.18;3.53;;;;;;;16.89;67.01;96971.19;10277854;28;20559;-53
2023/05/17 00:35:33;;;;;;;8.95;3.40;;;;;;;16.89;66.81;96970.34;10278839;28;20496;-53
2023/05/17 00:40:32;;;;;;;9.35;4.18;;;;;;;16.82;66.51;96969.72;10278415;28;20022;-53
2023/05/17 00:45:31;;;;;;;10.02;4.15;;;;;;;16.72;65.92;96971.81;10276175;28;20141;-53
2023/05/17 00:50:30;;;;;;;11.13;4.25;;;;;;;16.82;65.35;96961.84;10276101;28;20054;-53
2023/05/17 00:55:29;;;;;;;9.80;4.07;;;;;;;16.71;65.80;96964.00;10285051;28;20105;-53
2023/05/17 01:00:28;;;;;;;8.95;4.45;;;;;;;16.69;66.42;96960.59;10285861;28;20077;-53
2023/05/17 01:05:28;;;;;;;10.50;4.60;;;;;;;16.11;67.00;96886.84;10284408;28;20099;-53
2023/05/17 01:10:40;;;;;;;11.13;4.72;;;;;;;16.43;68.88;96946.69;10285071;28;20112;-53
2023/05/17 01:15:49;;;;;;;12.23;4.88;;;;;;;16.13;69.43;96926.91;10284257;28;20117;-53
2023/05/17 01:20:50;;;;;;;12.95;4.70;;;;;;;16.14;69.05;96950.41;10285210;28;20117;-53
2023/05/17 01:26:07;;;;;;;7.93;4.20;;;;;;;16.01;69.25;96957.81;10284189;28;20129;-53
2023/05/17 01:31:08;;;;;;;11.20;4.30;;;;;;;15.94;69.47;96951.09;10284935;28;20077;-53
2023/05/17 01:36:07;;;;;;;11.85;4.43;;;;;;;15.81;71.13;96952.44;10284102;28;20077;-53
2023/05/17 01:41:21;;;;;;;13.48;5.60;;;;;;;15.70;72.03;96944.09;10283303;28;20053;-53
2023/05/17 01:46:40;;;;;;;11.65;5.05;;;;;;;15.60;71.73;96941.78;10283776;28;20069;-53
2023/05/17 01:51:48;;;;;;;11.73;5.53;;;;;;;15.41;71.97;96898.84;10282342;28;20077;-53
2023/05/17 01:56:54;;;;;;;13.93;5.13;;;;;;;15.79;71.75;96946.44;10282713;28;20512;-53
2023/05/17 02:01:57;;;;;;;16.05;7.38;;;;;;;15.73;72.71;96947.44;10283008;28;20084;-55
2023/05/17 02:06:56;;;;;;;14.55;7.47;;;;;;;15.73;73.73;96955.28;10281870;28;20514;-53
2023/05/17 02:11:55;;;;;;;16.98;7.97;;;;;;;15.69;75.17;96953.69;10282432;28;20025;-53
2023/05/17 02:16:54;;;;;;;18.83;8.65;;;;;;;15.73;75.95;96936.13;10282214;28;20670;-53
2023/05/17 02:21:53;;;;;;;16.27;9.40;;;;;;;15.71;76.49;96943.19;10282036;28;20574;-53
2023/05/17 02:26:52;;;;;;;18.33;9.68;;;;;;;15.70;76.77;96944.94;10281659;28;20478;-53
2023/05/17 02:31:51;;;;;;;14.95;10.18;;;;;;;15.74;77.17;96938.72;10281564;28;20423;-53
2023/05/17 02:36:51;;;;;;;;;;;;;;;15.76;76.94;96938.63;10282405;28;20108;-53
2023/05/17 02:41:50;;;;;;;19.27;11.32;;;;;;;15.74;76.69;96945.69;10281459;28;20000;-53
2023/05/17 02:46:48;;;;;;;;;;;;;;;15.75;77.10;96960.47;10281747;28;20060;-53
2023/05/17 02:51:47;;;;;;;23.80;11.83;;;;;;;15.67;77.04;96948.53;10280354;28;19917;-53
2023/05/17 02:56:46;;;;;;;20.15;10.98;;;;;;;15.75;76.25;96956.09;10279295;28;20430;-53
2023/05/17 03:01:45;;;;;;;;;;;;;;;15.74;76.12;96958.75;10281103;28;20928;-53
2023/05/17 03:06:44;;;;;;;19.93;11.37;;;;;;;15.74;76.00;96963.97;10280272;28;20396;-53
2023/05/17 03:11:44;;;;;;;17.85;11.60;;;;;;;15.68;76.08;96965.91;10279944;28;20065;-52
2023/05/17 03:16:43;;;;;;;16.45;13.05;;;;;;;15.67;76.17;96972.06;10279833;28;20120;-53
2023/05/17 03:21:41;;;;;;;19.63;13.20;;;;;;;15.52;77.10;96979.56;10279876;28;20203;-53
2023/05/17 03:26:40;;;;;;;22.00;12.85;;;;;;;15.48;76.87;96968.34;10278370;28;20141;-53
2023/05/17 03:31:39;;;;;;;19.08;11.82;;;;;;;15.55;76.93;96977.72;10279196;28;20044;-53
2023/05/17 03:36:39;;;;;;;;;;;;;;;15.62;76.28;96979.22;10280496;28;20115;-53
2023/05/17 03:41:38;;;;;;;15.57;12.10;;;;;;;15.75;76.03;96991.88;10278996;28;19956;-53
2023/05/17 03:46:37;;;;;;;17.23;11.90;;;;;;;15.88;75.63;96996.66;10279300;28;20176;-54
2023/05/17 03:51:36;;;;;;;15.82;10.77;;;;;;;15.85;75.27;97001.97;10278661;28;20038;-53
2023/05/17 03:56:35;;;;;;;19.70;11.77;;;;;;;15.88;75.33;97016.75;10278920;28;20538;-54
2023/05/17 04:01:34;;;;;;;17.25;11.45;;;;;;;15.94;75.34;97013.06;10278222;28;20472;-53
2023/05/17 04:06:33;;;;;;;17.65;12.50;;;;;;;15.96;75.30;97025.19;10279019;28;20444;-53
2023/05/17 04:11:32;;;;;;;21.98;10.68;;;;;;;16.10;74.93;97024.69;10278583;28;20407;-53
2023/05/17 04:16:32;;;;;;;14.80;10.43;;;;;;;16.15;74.91;97027.16;10279337;28;20081;-53
2023/05/17 04:21:31;;;;;;;16.65;12.15;;;;;;;16.11;74.73;97026.41;10278991;28;20507;-53
2023/05/17 04:26:30;;;;;;;18.88;11.85;;;;;;;16.14;74.94;97038.53;10280315;28;20026;-53
2023/05/17 04:31:30;;;;;;;17.77;12.15;;;;;;;15.88;74.61;96996.66;10286136;28;20061;-54
2023/05/17 04:36:29;;;;;;;17.83;11.63;;;;;;;16.27;74.40;97040.66;10287026;28;20564;-53
2023/05/17 04:41:28;;;;;;;19.70;10.98;;;;;;;16.46;74.23;97042.63;10285297;28;20316;-52
2023/05/17 04:46:27;;;;;;;21.88;10.32;;;;;;;16.61;73.83;97038.63;10285225;28;20124;-53
2023/05/17 04:51:26;;;;;;;15.52;9.80;;;;;;;16.71;73.89;97048.69;10283485;28;20053;-53
2023/05/17 04:56:25;;;;;;;;;;;;;;;16.86;74.02;97046.44;10285540;28;20030;-54
2023/05/17 05:01:24;;;;;;;20.47;10.53;;;;;;;16.37;72.96;96954.81;10285024;28;20431;-53
2023/05/17 05:06:23;;;;;;;18.83;10.02;;;;;;;16.97;72.80;97032.94;10285044;28;20783;-54
2023/05/17 05:11:23;;;;;;;24.20;12.55;;;;;;;17.14;73.70;97035.75;10283825;28;20136;-53
2023/05/17 05:16:23;;;;;;;17.30;10.93;;;;;;;17.01;72.94;96992.59;10284813;28;20567;-53
2023/05/17 05:21:22;;;;;;;20.67;10.63;;;;;;;17.38;71.99;97054.06;10282657;28;20113;-53
2023/05/17 05:26:21;;;;;;;23.48;12.10;;;;;;;17.41;70.92;97043.47;10283378;28;20026;-53
2023/05/17 05:31:20;;;;;;;19.27;11.13;;;;;;;17.46;70.73;97050.22;10280426;28;20516;-53
2023/05/17 05:36:19;;;;;;;17.33;10.73;;;;;;;17.14;69.56;96957.09;10283871;28;20116;-53
2023/05/17 05:41:18;;;;;;;19.50;11.00;;;;;;;17.90;67.92;97062.50;10283545;28;20022;-53
2023/05/17 05:46:17;;;;;;;17.63;10.05;;;;;;;18.04;67.55;97067.19;10283460;28;21192;-53
2023/05/17 05:51:18;;;;;;;18.48;10.45;;;;;;;18.16;67.04;97067.50;10283104;28;20060;-54
2023/05/17 05:56:16;;;;;;;16.42;9.85;;;;;;;18.53;65.77;97071.16;10283751;28;20081;-54
2023/05/17 06:01:15;;;;;;;17.38;11.40;;;;;;;18.71;65.44;97039.75;10283265;28;20044;-52
2023/05/17 06:06:17;;;;;;;17.33;9.02;;;;;;;19.21;62.00;97078.69;10283381;28;20030;-54
2023/05/17 06:11:17;;;;;;;14.32;9.55;;;;;;;19.38;60.41;97083.13;10283225;28;20077;-53
2023/05/17 06:16:16;;;;;;;18.23;10.50;;;;;;;19.56;60.35;97077.03;10281786;28;20117;-54
2023/05/17 06:21:17;;;;;;;16.95;10.85;;;;;;;19.37;61.07;97021.78;10283032;28;20467;-55
2023/05/17 06:26:16;;;;;;;18.20;10.65;;;;;;;19.89;59.69;97099.19;10282805;28;20073;-54
2023/05/17 06:31:15;;;;;;;18.30;10.05;;;;;;;20.09;58.41;97096.38;10281455;28;20033;-54
2023/05/17 06:36:14;;;;;;;21.75;10.00;;;;;;;20.25;57.88;97092.06;10281844;28;20065;-55
2023/05/17 06:41:13;;;;;;;14.23;9.52;;;;;;;20.31;57.17;97105.88;10281161;28;20034;-54
2023/05/17 06:46:12;;;;;;;16.05;8.85;;;;;;;20.30;58.34;97099.72;10281322;28;20041;-55
2023/05/17 06:51:11;;;;;;;16.27;9.10;;;;;;;20.31;56.97;97101.44;10280312;28;20153;-54
2023/05/17 06:56:10;;;;;;;14.13;9.20;;;;;;;20.56;57.51;97100.22;10281536;28;20137;-54
2023/05/17 07:01:09;;;;;;;14.63;8.68;;;;;;;21.00;60.01;97074.13;10281351;28;20030;-55
2023/05/17 07:06:08;;;;;;;15.40;8.43;;;;;;;21.71;55.79;97101.94;10280608;28;20091;-55
2023/05/17 07:11:07;;;;;;;17.73;7.60;;;;;;;21.91;52.35;97104.31;10280690;28;20439;-55
2023/05/17 07:16:07;;;;;;;12.73;7.53;;;;;;;21.83;52.28;97095.13;10279978;28;21451;-55
2023/05/17 07:21:06;;;;;;;13.75;8.20;;;;;;;21.90;53.19;97092.06;10279839;28;20161;-55
2023/05/17 07:26:05;;;;;;;15.88;7.97;;;;;;;21.50;52.91;97088.16;10280809;28;20068;-55
2023/05/17 07:31:04;;;;;;;14.32;8.13;;;;;;;21.50;52.77;97096.97;10278170;28;20030;-54
2023/05/17 07:36:04;;;;;;;13.05;8.00;;;;;;;20.86;52.64;97021.28;10283534;28;20059;-54
2023/05/17 07:41:08;;;;;;;14.45;7.68;;;;;;;21.38;51.42;97100.25;10277149;28;20097;-55
2023/05/17 07:46:07;;;;;;;17.85;8.57;;;;;;;21.47;52.01;97094.47;10283226;28;20077;-55
2023/05/17 07:51:06;;;;;;;14.57;7.20;;;;;;;21.25;50.49;97049.09;10281754;28;20104;-54
2023/05/17 07:56:05;;;;;;;18.48;8.45;;;;;;;21.66;51.89;97094.28;10277021;28;20076;-55
2023/05/17 08:01:04;;;;;;;19.55;8.15;;;;;;;22.08;52.52;97099.88;10283435;28;20058;-55
2023/05/17 08:06:04;;;;;;;16.45;7.60;;;;;;;21.77;50.25;97031.16;10288755;28;20022;-55
2023/05/17 08:11:03;;;;;;;15.98;7.55;;;;;;;22.56;50.57;97090.88;10287143;28;20672;-55
2023/05/17 08:16:06;;;;;;;13.90;6.88;;;;;;;22.64;48.63;97087.75;10290397;28;20451;-55
2023/05/17 08:21:05;;;;;;;15.55;7.60;;;;;;;22.80;48.86;97080.63;10287982;28;20073;-55
2023/05/17 08:26:04;;;;;;;15.63;8.00;;;;;;;22.92;48.29;97078.16;10289852;28;20113;-55
2023/05/17 08:31:05;;;;;;;16.42;7.80;;;;;;;22.78;47.95;97069.28;10289779;28;20129;-55
2023/05/17 08:36:06;;;;;;;12.27;7.35;;;;;;;22.75;49.78;97071.28;10289275;28;20069;-54
2023/05/17 08:41:05;;;;;;;20.30;7.97;;;;;;;22.58;49.11;97085.50;10290594;28;20064;-54
2023/05/17 08:46:05;;;;;;;15.82;7.70;;;;;;;21.99;49.35;97047.56;10289111;28;20048;-55
2023/05/17 08:51:06;;;;;;;15.48;8.13;;;;;;;22.43;52.31;97078.47;10288365;28;20124;-54
2023/05/17 08:56:06;;;;;;;14.50;7.78;;;;;;;22.06;52.34;97041.88;10287950;28;20065;-55
2023/05/17 09:01:06;;;;;;;12.93;6.95;;;;;;;21.99;50.93;97079.28;10288405;28;20133;-55
2023/05/17 09:06:06;;;;;;;15.27;7.50;;;;;;;22.32;52.50;97081.72;10285033;28;20072;-54
2023/05/17 09:11:05;;;;;;;15.20;7.13;;;;;;;21.90;53.46;97081.50;10274695;28;20145;-54
2023/05/17 09:16:12;;;;;;;15.55;8.15;;;;;;;21.96;54.08;97078.47;10281792;28;20030;-54
2023/05/17 09:21:12;;;;;;;15.02;7.78;;;;;;;21.62;55.51;97079.56;10286387;28;20129;-55
2023/05/17 09:26:12;;;;;;;14.02;8.23;;;;;;;21.56;55.79;97074.63;10283170;28;20148;-54
2023/05/17 09:31:12;;;;;;;14.35;8.27;;;;;;;21.80;57.48;97075.03;10284686;28;20500;-54
2023/05/17 09:36:22;;;;;;;12.90;8.18;;;;;;;21.74;57.63;97075.38;10281129;28;20073;-54
2023/05/17 09:41:25;;;;;;;9.25;7.32;;;;;;;21.66;57.86;97067.88;10285343;28;21037;-54
2023/05/17 09:46:24;;;;;;;16.10;8.50;;;;;;;21.75;59.28;97074.44;10284561;28;20133;-55
2023/05/17 09:51:38;;;;;;;14.90;8.60;;;;;;;21.39;59.22;97080.00;10284110;28;20049;-54
2023/05/17 09:56:38;;;;;;;17.75;9.52;;;;;;;21.14;59.90;97081.31;10281703;28;21144;-55
2023/05/17 10:01:40;;;;;;;15.65;10.20;;;;;;;21.04;70.09;97096.78;10282240;28;20061;-54
2023/05/17 10:06:40;;;;;;;19.10;13.52;;;;;;;19.08;80.13;97098.56;10281901;28;20129;-55
2023/05/17 10:11:44;;;;;;;23.45;14.57;;;;;;;17.41;93.59;97107.25;10281007;28;20128;-52
2023/05/17 10:16:44;;;;;;;24.77;17.08;;;;;;;16.19;100.00;97086.34;10281226;28;20124;-53
2023/05/17 10:21:43;;;;;;;28.52;19.98;;;;;;;15.33;100.00;97008.91;10280687;28;20572;-53
2023/05/17 10:26:43;;;;;;;35.10;22.35;;;;;;;15.66;100.00;97082.78;10278898;28;20136;-52
2023/05/17 10:31:42;;;;;;;33.05;21.65;;;;;;;15.39;100.00;97079.31;10281395;28;20153;-52
2023/05/17 10:36:42;;;;;;;40.53;25.80;;;;;;;15.01;100.00;97036.91;10280063;28;20137;-52
2023/05/17 10:41:44;;;;;;;41.55;28.70;;;;;;;15.31;100.00;97114.44;10280536;28;20116;-53
2023/05/17 10:46:52;;;;;;;49.95;30.38;;;;;;;15.35;100.00;97123.91;10282974;28;20065;-52
2023/05/17 10:51:51;;;;;;;31.80;16.80;;;;;;;14.34;100.00;97144.06;10281256;28;20085;-56
2023/05/17 10:56:51;;;;;;;47.58;21.83;;;;;;;13.61;100.00;97179.75;10284013;28;20116;-56
2023/05/17 11:02:07;;;;;;;47.60;25.00;;;;;;;13.81;100.00;97168.88;10284150;28;20467;-55
2023/05/17 11:07:22;;;;;;;43.80;22.23;;;;;;;13.93;100.00;97189.44;10280336;28;20547;-55
2023/05/17 11:12:45;;;;;;;44.00;22.70;;;;;;;13.91;100.00;97207.75;10282485;28;20128;-55
2023/05/17 11:17:53;;;;;;;38.45;25.08;;;;;;;14.20;100.00;97224.47;10281985;28;20578;-55
2023/05/17 11:23:01;;;;;;;34.45;19.98;;;;;;;14.19;100.00;97215.78;10283368;28;20080;-55
2023/05/17 11:28:05;;;;;;;37.75;20.92;;;;;;;14.18;100.00;97195.78;10281186;28;20161;-55
2023/05/17 11:33:05;;;;;;;45.13;24.17;;;;;;;14.43;100.00;97208.25;10276224;28;20124;-55
2023/05/17 11:38:26;;;;;;;44.75;26.33;;;;;;;14.55;100.00;97199.25;10281472;28;20064;-55
2023/05/17 11:43:29;;;;;;;43.63;26.25;;;;;;;14.79;100.00;97176.88;10281525;28;20969;-55
2023/05/17 11:48:30;;;;;;;37.00;22.52;;;;;;;15.36;100.00;97198.78;10282285;28;20077;-55
2023/05/17 11:53:29;;;;;;;31.38;17.85;;;;;;;15.53;100.00;97207.03;10283138;28;20077;-55
2023/05/17 11:58:30;;;;;;;27.08;16.35;;;;;;;15.52;100.00;97193.97;10281945;28;20049;-54
2023/05/17 12:03:31;;;;;;;29.40;17.55;;;;;;;15.29;100.00;97186.81;10282513;28;20065;-54
2023/05/17 12:08:33;;;;;;;25.02;17.45;;;;;;;15.60;100.00;97176.28;10277315;28;20125;-54
2023/05/17 12:13:33;;;;;;;33.10;19.33;;;;;;;15.23;100.00;97114.66;10278654;28;20133;-55
2023/05/17 12:18:49;;;;;;;29.40;21.80;;;;;;;14.75;100.00;96998.50;10281332;28;20437;-54
2023/05/17 12:23:51;;;;;;;36.42;22.98;;;;;;;15.51;100.00;97161.75;10281865;28;20134;-54
2023/05/17 12:28:56;;;;;;;43.00;27.10;;;;;;;15.34;100.00;97158.75;10280904;28;20563;-54
2023/05/17 12:33:57;;;;;;;34.08;24.35;;;;;;;15.45;100.00;97168.00;10280533;28;20084;-54
2023/05/17 12:38:57;;;;;;;40.95;26.23;;;;;;;15.61;100.00;97163.16;10280928;28;20104;-54
2023/05/17 12:43:56;;;;;;;38.20;25.60;;;;;;;15.58;100.00;97173.75;10279690;28;20061;-54
2023/05/17 12:49:03;;;;;;;30.30;22.40;;;;;;;15.15;100.00;97179.34;10284867;28;20141;-55
2023/05/17 12:54:03;;;;;;;36.13;25.25;;;;;;;14.99;100.00;97165.88;10288393;28;20448;-54
2023/05/17 12:59:16;;;;;;;29.50;22.40;;;;;;;14.96;100.00;97152.91;10288151;28;20057;-53
2023/05/17 13:04:16;;;;;;;37.42;25.70;;;;;;;14.95;100.00;97172.09;10286495;28;20065;-51
2023/05/17 13:09:17;;;;;;;28.80;21.13;;;;;;;14.90;100.00;97173.97;10285793;28;20145;-52
2023/05/17 13:14:32;;;;;;;26.15;19.35;;;;;;;14.97;100.00;97165.94;10286268;28;20104;-52
2023/05/17 13:19:31;;;;;;;37.30;25.65;;;;;;;14.99;100.00;97164.13;10285902;28;20567;-52
2023/05/17 13:24:35;;;;;;;38.72;24.63;;;;;;;14.96;100.00;97166.81;10285224;28;20112;-53
2023/05/17 13:29:37;;;;;;;39.67;24.98;;;;;;;14.98;100.00;97172.84;10285354;28;20133;-52
2023/05/17 13:34:36;;;;;;;26.10;19.45;;;;;;;14.98;100.00;97177.22;10286040;28;20908;-52
2023/05/17 13:39:35;;;;;;;31.83;21.80;;;;;;;15.04;100.00;97177.06;10285667;28;20475;-52
2023/05/17 13:44:34;;;;;;;41.95;26.90;;;;;;;14.66;100.00;97175.44;10286714;28;20484;-58
2023/05/17 13:49:33;;;;;;;35.70;24.35;;;;;;;14.69;100.00;97172.78;10285049;28;20480;-52
2023/05/17 13:54:32;;;;;;;33.53;25.50;;;;;;;14.71;100.00;97179.72;10285573;28;20841;-53
2023/05/17 13:59:31;;;;;;;40.15;25.98;;;;;;;14.34;100.00;97115.38;10285306;28;20121;-53
2023/05/17 14:04:31;;;;;;;38.65;27.02;;;;;;;14.62;100.00;97164.25;10285180;28;20105;-53
2023/05/17 14:09:32;;;;;;;44.50;27.10;;;;;;;14.44;100.00;97156.91;10283378;28;20125;-53
2023/05/17 14:14:31;;;;;;;47.90;31.40;;;;;;;14.37;100.00;97141.38;10283581;28;20121;-52
2023/05/17 14:19:30;;;;;;;46.85;30.15;;;;;;;13.96;100.00;97080.69;10284455;28;20072;-53
2023/05/17 14:24:29;;;;;;;50.25;31.92;;;;;;;14.11;100.00;97104.69;10282603;28;20022;-52
2023/05/17 14:29:30;;;;;;;42.70;27.38;;;;;;;14.22;100.00;97128.75;10282891;28;20147;-52
2023/05/17 14:34:29;;;;;;;40.65;25.50;;;;;;;14.25;100.00;97126.03;10280002;28;20559;-52
2023/05/17 14:39:28;;;;;;;47.38;31.50;;;;;;;14.25;100.00;97126.03;10279633;28;20132;-51
2023/05/17 14:44:28;;;;;;;;;;;;;;;14.24;100.00;97134.78;10280957;28;20044;-53
2023/05/17 14:49:27;;;;;;;;;;;;;;;14.36;100.00;97136.22;10278528;28;20024;-52
2023/05/17 14:54:28;;;;;;;41.37;27.57;;;;;;;14.45;100.00;97135.09;10272879;28;20015;-51
2023/05/17 14:59:27;;;;;;;36.42;25.20;;;;;;;14.60;100.00;97142.53;10281464;28;20076;-52
2023/05/17 15:04:26;;;;;;;36.60;24.27;;;;;;;14.29;100.00;97101.59;10280446;28;20026;-52
2023/05/17 15:09:26;;;;;;;42.65;27.58;;;;;;;14.41;100.00;97148.25;10279516;28;20060;-52
2023/05/17 15:14:25;;;;;;;37.55;26.17;;;;;;;14.46;100.00;97147.28;10277229;28;20065;-50
2023/05/17 15:19:25;;;;;;;33.45;23.83;;;;;;;14.55;100.00;97147.03;10273473;28;20021;-51
2023/05/17 15:24:24;;;;;;;39.45;25.95;;;;;;;14.38;100.00;97150.94;10281746;28;20073;-52
2023/05/17 15:29:23;;;;;;;43.22;27.95;;;;;;;14.31;100.00;97152.00;10277730;28;20141;-52
2023/05/17 15:34:25;;;;;;;43.53;27.40;;;;;;;14.37;100.00;97149.22;10279880;28;20066;-52
2023/05/17 15:39:24;;;;;;;44.38;28.75;;;;;;;13.47;100.00;96993.22;10281682;28;20073;-52
2023/05/17 15:44:23;;;;;;;;;;;;;;;14.44;100.00;97143.84;10282343;28;20559;-52
2023/05/17 15:49:21;;;;;;;40.07;25.73;;;;;;;14.31;100.00;97153.72;10279860;28;20635;-52
2023/05/17 15:54:20;;;;;;;;;;;;;;;14.11;100.00;97155.09;10281497;28;20034;-52
2023/05/17 15:59:19;;;;;;;46.43;27.07;;;;;;;14.08;100.00;97146.50;10276695;28;19999;-52
2023/05/17 16:04:18;;;;;;;;;;;;;;;14.05;100.00;97154.38;10274842;28;20050;-52
2023/05/17 16:09:17;;;;;;;42.63;26.93;;;;;;;14.07;100.00;97144.78;10275226;28;19917;-52
2023/05/17 16:14:16;;;;;;;;;;;;;;;14.09;100.00;97143.84;10276457;28;20041;-53
2023/05/17 16:19:15;;;;;;;37.05;22.92;;;;;;;13.92;100.00;97141.66;10278701;28;20013;-53
2023/05/17 16:24:14;;;;;;;;;;;;;;;13.77;100.00;97145.50;10282885;28;20120;-52
2023/05/17 16:29:15;;;;;;;37.23;22.93;;;;;;;13.82;100.00;97150.59;10284779;28;19925;-52
2023/05/17 16:34:14;;;;;;;36.05;20.90;;;;;;;13.74;100.00;97137.72;10286567;28;20085;-53
2023/05/17 16:39:13;;;;;;;29.85;19.77;;;;;;;13.52;100.00;97085.19;10283928;28;20512;-52
2023/05/17 16:44:12;;;;;;;;;;;;;;;13.98;100.00;97131.06;10286190;28;20585;-52
2023/05/17 16:49:11;;;;;;;27.47;17.50;;;;;;;14.15;100.00;97133.25;10284919;28;19924;-52
2023/05/17 16:54:10;;;;;;;;;;;;;;;14.09;100.00;97143.00;10281711;28;20487;-53
2023/05/17 16:59:09;;;;;;;27.88;16.35;;;;;;;14.04;100.00;97131.81;10284224;28;19972;-51
2023/05/17 17:04:07;;;;;;;;;;;;;;;14.14;100.00;97130.69;10283372;28;20038;-52
2023/05/17 17:09:07;;;;;;;22.50;16.77;;;;;;;14.24;100.00;97132.19;10283343;28;20027;-53
2023/05/17 17:14:06;;;;;;;23.92;16.58;;;;;;;14.35;100.00;97131.88;10284151;28;20081;-52
2023/05/17 17:19:05;;;;;;;22.27;16.60;;;;;;;14.47;100.00;97141.13;10282395;28;20121;-53
2023/05/17 17:24:05;;;;;;;24.05;16.23;;;;;;;14.47;100.00;97138.53;10282071;28;20128;-52
2023/05/17 17:29:04;;;;;;;23.65;17.92;;;;;;;14.43;100.00;97126.44;10282202;28;20121;-52
2023/05/17 17:34:04;;;;;;;22.55;16.42;;;;;;;14.45;100.00;97129.88;10283486;28;20034;-53
2023/05/17 17:39:02;;;;;;;21.83;16.55;;;;;;;14.38;100.00;97129.19;10283568;28;20976;-52
2023/05/17 17:44:01;;;;;;;20.27;17.02;;;;;;;14.29;100.00;97124.19;10282077;28;20398;-51
2023/05/17 17:49:00;;;;;;;;;;;;;;;14.37;100.00;97128.34;10283321;28;20527;-52
2023/05/17 17:53:59;;;;;;;26.65;20.65;;;;;;;14.35;100.00;97131.88;10282286;28;20414;-53
2023/05/17 17:58:58;;;;;;;;;;;;;;;14.32;100.00;97132.81;10282422;28;20139;-51
2023/05/17 18:03:57;;;;;;;26.50;20.07;;;;;;;14.08;100.00;97108.22;10282253;28;19960;-53
2023/05/17 18:08:56;;;;;;;28.48;21.00;;;;;;;14.24;100.00;97146.94;10279181;28;20149;-52
2023/05/17 18:13:55;;;;;;;32.28;24.35;;;;;;;14.29;100.00;97140.75;10277199;28;20128;-52
2023/05/17 18:18:55;;;;;;;;;;;;;;;14.35;100.00;97139.72;10282763;28;20049;-52
2023/05/17 18:23:53;;;;;;;43.10;30.27;;;;;;;14.44;100.00;97138.63;10281260;28;19959;-51
2023/05/17 18:28:52;;;;;;;;;;;;;;;14.41;100.00;97140.41;10281915;28;20322;-52
2023/05/17 18:33:51;;;;;;;42.17;33.07;;;;;;;14.39;100.00;97142.19;10280185;28;19913;-52
2023/05/17 18:38:51;;;;;;;;;;;;;;;13.68;100.00;97150.03;10278261;28;20034;-52
2023/05/17 18:43:50;;;;;;;20.33;14.00;;;;;;;13.18;100.00;97160.66;10278776;28;20012;-50
2023/05/17 18:48:48;;;;;;;;;;;;;;;12.83;100.00;97163.97;10280059;28;20087;-52
2023/05/17 18:53:47;;;;;;;9.82;6.50;;;;;;;12.45;100.00;97123.91;10280423;28;19926;-52
2023/05/17 18:58:49;;;;;;;12.85;9.35;;;;;;;12.09;100.00;97118.47;10279020;28;20121;-54
2023/05/17 19:03:55;;;;;;;10.10;6.10;;;;;;;12.18;100.00;97183.34;10279656;28;20069;-52
2023/05/17 19:08:56;;;;;;;8.02;4.45;;;;;;;12.06;100.00;97194.78;10279660;28;20069;-50
2023/05/17 19:13:55;;;;;;;17.67;10.13;;;;;;;12.07;100.00;97190.44;10278282;28;20077;-50
2023/05/17 19:18:54;;;;;;;;;;;;;;;12.12;100.00;97204.22;10280023;28;20100;-49
2023/05/17 19:23:53;;;;;;;16.38;8.20;;;;;;;12.07;100.00;97190.44;10280145;28;19963;-51
2023/05/17 19:28:52;;;;;;;;;;;;;;;11.94;100.00;97200.16;10278903;28;20044;-50
2023/05/17 19:33:51;;;;;;;11.13;6.18;;;;;;;11.78;100.00;97203.88;10279072;28;19991;-52
2023/05/17 19:38:50;;;;;;;;;;;;;;;11.89;100.00;97196.78;10279989;28;20037;-49
2023/05/17 19:43:49;;;;;;;17.08;9.75;;;;;;;11.98;100.00;97201.00;10277963;28;20482;-49
2023/05/17 19:48:48;;;;;;;;;;;;;;;12.14;100.00;97202.47;10279402;28;20154;-52
2023/05/17 19:53:47;;;;;;;17.63;10.27;;;;;;;12.22;100.00;97203.19;10279198;28;20016;-51
2023/05/17 19:58:45;;;;;;;;;;;;;;;12.20;100.00;97204.09;10286279;28;20048;-50
2023/05/17 20:03:44;;;;;;;17.63;10.10;;;;;;;12.16;100.00;97189.41;10292349;28;19944;-51
2023/05/17 20:08:43;;;;;;;;;;;;;;;12.12;100.00;97204.22;10292080;28;20025;-52
2023/05/17 20:13:42;;;;;;;11.00;6.68;;;;;;;11.69;100.00;97142.50;10291717;28;20039;-49
2023/05/17 20:18:42;;;;;;;;;;;;;;;11.73;100.00;97201.34;10292319;28;20036;-51
2023/05/17 20:23:41;;;;;;;13.30;8.47;;;;;;;11.65;100.00;97187.63;10291079;28;19966;-51
2023/05/17 20:28:40;;;;;;;;;;;;;;;11.86;100.00;97192.50;10291797;28;20312;-52
2023/05/17 20:33:38;;;;;;;12.55;8.18;;;;;;;12.04;100.00;97195.69;10291414;28;20391;-51
2023/05/17 20:38:37;;;;;;;9.40;6.00;;;;;;;12.20;100.00;97199.75;10291736;28;20486;-52
2023/05/17 20:43:36;;;;;;;9.13;5.30;;;;;;;12.25;100.00;97192.75;10290437;28;20047;-52
2023/05/17 20:48:36;;;;;;;;;;;;;;;12.37;100.00;97209.06;10291984;28;20401;-52
2023/05/17 20:53:35;;;;;;;10.30;5.93;;;;;;;12.40;100.00;97199.47;10291631;28;20012;-50
2023/05/17 20:58:34;;;;;;;10.77;7.13;;;;;;;12.45;100.00;97209.78;10290631;28;20117;-52
2023/05/17 21:03:33;;;;;;;10.20;6.50;;;;;;;12.44;100.00;97208.09;10291164;28;20068;-50
2023/05/17 21:08:32;;;;;;;;;;;;;;;12.42;100.00;97207.25;10288315;28;20575;-51
2023/05/17 21:13:31;;;;;;;6.50;4.93;;;;;;;12.49;100.00;97211.47;10283966;28;19961;-51
2023/05/17 21:18:30;;;;;;;;;;;;;;;12.46;100.00;97214.97;10284855;28;20040;-51
2023/05/17 21:23:29;;;;;;;8.70;5.05;;;;;;;12.56;100.00;97222.63;10284834;28;19913;-52
2023/05/17 21:28:28;;;;;;;8.15;4.85;;;;;;;12.60;100.00;97232.97;10283455;28;20120;-50
2023/05/17 21:33:27;;;;;;;7.20;4.60;;;;;;;12.62;100.00;97220.75;10284011;28;20551;-51
2023/05/17 21:38:26;;;;;;;9.77;4.88;;;;;;;12.66;100.00;97227.63;10283474;28;20586;-52
2023/05/17 21:43:25;;;;;;;;;;;;;;;12.72;100.00;97226.69;10283578;28;20841;-49
2023/05/17 21:48:24;;;;;;;9.70;5.07;;;;;;;12.78;100.00;97228.31;10283821;28;20435;-50
2023/05/17 21:53:23;;;;;;;9.43;5.57;;;;;;;12.81;100.00;97228.22;10283492;28;20080;-50
2023/05/17 21:58:22;;;;;;;;;;;;;;;12.84;100.00;97236.00;10283464;28;20125;-50
2023/05/17 22:03:21;;;;;;;10.30;6.05;;;;;;;12.80;100.00;97223.94;10282844;28;19920;-50
2023/05/17 22:08:20;;;;;;;9.40;5.90;;;;;;;12.76;100.00;97235.28;10283374;28;20577;-50
2023/05/17 22:13:24;;;;;;;;;;;;;;;12.72;100.00;97237.94;10282800;28;20117;-50
2023/05/17 22:18:23;;;;;;;17.40;6.72;;;;;;;12.73;100.00;97230.97;10277890;28;19948;-50
2023/05/17 22:23:21;;;;;;;;;;;;;;;12.76;100.00;97223.13;10280516;28;20149;-49
2023/05/17 22:28:20;;;;;;;10.60;6.80;;;;;;;12.74;100.00;97224.88;10279748;28;20016;-48
2023/05/17 22:33:22;;;;;;;;;;;;;;;12.69;100.00;97224.09;10281483;28;20120;-50
2023/05/17 22:38:22;;;;;;;9.50;5.45;;;;;;;12.69;100.00;97224.09;10282157;28;19961;-50
2023/05/17 22:43:21;;;;;;;11.18;6.10;;;;;;;12.69;100.00;97214.53;10282487;28;20117;-48
2023/05/17 22:48:20;;;;;;;;;;;;;;;12.72;100.00;97211.91;10281427;28;20259;-50
2023/05/17 22:53:19;;;;;;;11.02;5.88;;;;;;;12.71;100.00;97204.97;10281335;28;20035;-49
2023/05/17 22:58:18;;;;;;;9.90;6.03;;;;;;;12.78;100.00;97205.72;10281188;28;20089;-50
2023/05/17 23:03:17;;;;;;;;;;;;;;;12.78;100.00;97202.25;10281388;28;20038;-48